Time;durP1;ratioP1;P1;durP2;ratioP2;P2;SDS_P1;SDS_P2;PMS_P1;PMS_P2;Temp;Humidity;BMP_temperature;BMP_pressure;BME280_temperature;BME280_humidity;BME280_pressure;Samples;Min_cycle;Max_cycle;Signal;HPM_P1;HPM_P2
2023/10/01 00:00:28;;;;;;;7.78;6.30;;;;;;;11.09;100.00;102081.25;6144363;23;20052;-72
2023/10/01 00:02:56;;;;;;;6.82;6.30;;;;;;;11.00;100.00;102071.88;6162872;23;20056;-71
2023/10/01 00:05:24;;;;;;;7.45;6.85;;;;;;;11.06;100.00;102083.97;6142679;23;20036;-74
2023/10/01 00:07:52;;;;;;;9.88;6.85;;;;;;;11.00;100.00;102087.66;6161059;23;20024;-73
2023/10/01 00:10:20;;;;;;;7.25;6.63;;;;;;;10.74;100.00;102067.47;6166954;23;20401;-72
2023/10/01 00:12:49;;;;;;;7.35;6.53;;;;;;;10.91;100.00;102082.72;6164932;23;20030;-72
2023/10/01 00:15:21;;;;;;;8.88;6.40;;;;;;;10.90;100.00;102083.59;6137950;23;20084;-73
2023/10/01 00:17:50;;;;;;;6.75;6.10;;;;;;;10.65;100.00;102044.97;6137499;23;20032;-73
2023/10/01 00:20:22;;;;;;;7.05;6.45;;;;;;;10.87;100.00;102081.09;6166521;23;20048;-73
2023/10/01 00:22:51;;;;;;;7.25;6.57;;;;;;;10.67;100.00;102064.16;6164779;23;20060;-72
2023/10/01 00:25:19;;;;;;;6.40;5.90;;;;;;;10.86;100.00;102095.97;6165453;23;20028;-73
2023/10/01 00:27:45;;;;;;;7.47;6.57;;;;;;;10.86;100.00;102082.81;6136360;23;20016;-71
2023/10/01 00:30:12;;;;;;;7.22;6.63;;;;;;;10.70;100.00;102064.06;6169003;23;20504;-72
2023/10/01 00:32:40;;;;;;;7.03;5.90;;;;;;;10.34;100.00;102009.19;6168984;23;20425;-72
2023/10/01 00:35:07;;;;;;;8.70;6.43;;;;;;;10.77;100.00;102099.75;6134970;23;20035;-71
2023/10/01 00:37:34;;;;;;;7.20;6.22;;;;;;;10.54;100.00;102045.31;6151299;23;20108;-72
2023/10/01 00:40:05;;;;;;;6.95;6.43;;;;;;;10.54;100.00;102054.94;6140673;23;20027;-71
2023/10/01 00:42:35;;;;;;;6.32;5.85;;;;;;;10.60;100.00;102067.88;6142623;23;20024;-71
2023/10/01 00:45:03;;;;;;;6.97;6.47;;;;;;;10.70;100.00;102092.09;6144847;23;20062;-72
2023/10/01 00:47:32;;;;;;;6.70;6.20;;;;;;;10.19;100.00;102017.47;6171235;23;20126;-71
2023/10/01 00:50:00;;;;;;;6.80;6.20;;;;;;;10.34;100.00;102051.16;6138555;23;20470;-71
2023/10/01 00:52:28;;;;;;;7.13;6.53;;;;;;;10.49;100.00;102090.97;6164528;23;20019;-70
2023/10/01 00:54:55;;;;;;;6.75;6.15;;;;;;;10.14;100.00;102033.34;6142845;23;20017;-71
2023/10/01 00:57:22;;;;;;;7.15;5.93;;;;;;;10.45;100.00;102090.19;6142268;23;20366;-71
2023/10/01 00:59:48;;;;;;;6.65;5.93;;;;;;;10.27;100.00;102059.22;6116927;23;20628;-71
2023/10/01 01:02:18;;;;;;;7.05;6.43;;;;;;;10.46;100.00;102081.41;6166516;23;20497;-72
2023/10/01 01:04:59;;;;;;;6.88;6.32;;;;;;;10.48;100.00;102079.59;6138746;23;20154;-70
2023/10/01 01:07:28;;;;;;;6.63;6.13;;;;;;;10.21;100.00;102035.78;6171038;23;20021;-72
2023/10/01 01:09:54;;;;;;;6.35;5.68;;;;;;;10.42;100.00;102073.69;6144377;23;20036;-72
2023/10/01 01:12:21;;;;;;;7.32;6.68;;;;;;;10.26;100.00;102028.63;6108401;23;20033;-72
2023/10/01 01:14:48;;;;;;;6.40;5.90;;;;;;;10.50;100.00;102074.31;6147944;23;20029;-71
2023/10/01 01:17:15;;;;;;;6.25;5.53;;;;;;;10.44;100.00;102066.63;6142515;23;20025;-72
2023/10/01 01:19:55;;;;;;;6.28;5.65;;;;;;;9.70;100.00;101945.44;6120070;23;20150;-70
2023/10/01 01:22:28;;;;;;;6.30;5.82;;;;;;;10.50;100.00;102087.44;6135772;23;20044;-71
2023/10/01 01:25:00;;;;;;;6.03;5.63;;;;;;;10.48;100.00;102076.97;6171121;23;20080;-71
2023/10/01 01:27:31;;;;;;;6.00;5.60;;;;;;;10.43;100.00;102078.88;6150361;23;20025;-71
2023/10/01 01:29:58;;;;;;;6.78;6.18;;;;;;;10.37;100.00;102079.94;6138523;23;20822;-71
2023/10/01 01:32:25;;;;;;;6.68;6.18;;;;;;;10.07;100.00;102031.78;6166134;23;20485;-71
2023/10/01 01:34:54;;;;;;;6.05;5.57;;;;;;;10.31;100.00;102084.50;6116097;23;20028;-71
2023/10/01 01:38:07;;;;;;;7.35;6.18;;;;;;;9.98;100.00;102022.44;6115341;23;20044;-72
2023/10/01 01:40:23;;;;;;;5.75;5.28;;;;;;;10.29;100.00;102083.66;6121903;23;20482;-71
2023/10/01 01:43:04;;;;;;;7.40;6.45;;;;;;;10.29;100.00;102081.03;6160591;23;20384;-71
2023/10/01 01:45:33;;;;;;;6.93;5.50;;;;;;;10.29;100.00;102081.88;6138632;23;20033;-70
2023/10/01 01:48:02;;;;;;;8.20;5.60;;;;;;;10.29;100.00;102079.25;6166137;23;20500;-71
2023/10/01 01:50:31;;;;;;;6.10;5.70;;;;;;;10.28;100.00;102074.03;6136412;23;20447;-70
2023/10/01 01:53:11;;;;;;;16.02;14.93;;;;;;;10.00;100.00;102035.47;6036319;23;20341;-71
2023/10/01 01:55:38;;;;;;;5.90;5.40;;;;;;;9.94;100.00;102025.16;6138735;23;20073;-73
2023/10/01 02:00:35;;;;;;;5.97;5.60;;;;;;;10.21;100.00;102067.28;6168491;23;20036;-71
2023/10/01 02:03:10;;;;;;;5.45;5.13;;;;;;;10.17;100.00;102067.34;6167413;23;20096;-72
2023/10/01 02:05:41;;;;;;;5.55;5.18;;;;;;;9.94;100.00;102033.91;6139662;23;20038;-70
2023/10/01 02:08:23;;;;;;;7.55;6.03;;;;;;;9.48;100.00;101961.78;6165239;23;20080;-73
2023/10/01 02:10:56;;;;;;;5.72;5.32;;;;;;;10.08;100.00;102066.75;6134056;23;20266;-70
2023/10/01 02:13:25;;;;;;;6.50;5.85;;;;;;;9.99;100.00;102063.47;6122908;23;20013;-72
2023/10/01 02:15:52;;;;;;;5.85;5.35;;;;;;;9.58;100.00;101997.31;6141185;23;20518;-72
2023/10/01 02:18:20;;;;;;;6.18;5.68;;;;;;;9.42;100.00;101964.59;6140968;23;20361;-72
2023/10/01 02:20:56;;;;;;;6.15;5.70;;;;;;;9.73;100.00;102013.53;6140300;23;20045;-71
2023/10/01 02:23:26;;;;;;;6.00;5.60;;;;;;;10.06;100.00;102056.28;6165714;23;20046;-72
2023/10/01 02:25:53;;;;;;;13.20;6.03;;;;;;;10.08;100.00;102065.00;6113988;23;20029;-70
2023/10/01 02:28:19;;;;;;;6.30;5.57;;;;;;;9.72;100.00;102001.31;6168888;23;20021;-71
2023/10/01 02:30:46;;;;;;;5.90;5.50;;;;;;;10.08;100.00;102062.38;6134167;23;20609;-70
2023/10/01 02:33:16;;;;;;;5.90;5.50;;;;;;;10.06;100.00;102052.81;6166285;23;20008;-72
2023/10/01 02:35:49;;;;;;;5.10;4.70;;;;;;;9.83;100.00;102022.00;6138708;23;20017;-70
2023/10/01 02:41:02;;;;;;;5.65;5.10;;;;;;;9.69;100.00;101994.41;6136809;23;20355;-70
2023/10/01 02:43:34;;;;;;;5.38;5.07;;;;;;;9.84;100.00;102019.31;6137670;23;20057;-71
2023/10/01 02:46:12;;;;;;;5.78;5.38;;;;;;;9.59;100.00;101983.31;6147722;23;20037;-70
2023/10/01 02:48:40;;;;;;;9.55;5.65;;;;;;;9.91;100.00;102039.22;6138745;23;20024;-71
2023/10/01 02:51:14;;;;;;;6.40;5.47;;;;;;;10.04;100.00;102062.47;6167366;23;20099;-71
2023/10/01 02:53:42;;;;;;;6.07;5.47;;;;;;;9.56;100.00;101988.66;6163566;23;20020;-70
2023/10/01 02:56:16;;;;;;;6.00;5.60;;;;;;;9.97;100.00;102061.81;6141419;23;20028;-73
2023/10/01 02:58:49;;;;;;;5.97;5.28;;;;;;;9.83;100.00;102053.47;6166481;23;20025;-71
2023/10/01 03:01:17;;;;;;;5.72;5.32;;;;;;;9.92;100.00;102056.69;6136281;23;20140;-70
2023/10/01 03:03:43;;;;;;;9.05;5.97;;;;;;;9.85;100.00;102042.03;6109579;23;20092;-72
2023/10/01 03:06:10;;;;;;;6.28;5.38;;;;;;;9.90;100.00;102048.00;6166058;23;20020;-72
2023/10/01 03:11:16;;;;;;;5.90;5.35;;;;;;;9.76;100.00;102021.28;6140414;23;20085;-71
2023/10/01 03:13:48;;;;;;;6.28;5.45;;;;;;;9.41;100.00;101978.56;6141404;23;20013;-71
2023/10/01 03:19:13;;;;;;;5.70;5.20;;;;;;;9.89;100.00;102064.63;6147397;23;20368;-71
2023/10/01 03:24:25;;;;;;;6.20;5.70;;;;;;;9.92;100.00;102064.56;6165999;23;20028;-70
2023/10/01 03:26:57;;;;;;;7.50;5.80;;;;;;;9.89;100.00;102055.91;6169396;23;20081;-72
2023/10/01 03:29:34;;;;;;;5.90;5.30;;;;;;;9.73;100.00;102060.72;6141258;23;20063;-71
2023/10/01 03:32:27;;;;;;;6.07;5.68;;;;;;;9.47;100.00;101999.34;6164748;23;20111;-72
2023/10/01 03:34:52;;;;;;;5.82;5.25;;;;;;;9.64;100.00;102025.13;6136657;23;20447;-70
2023/10/01 03:37:22;;;;;;;7.45;6.85;;;;;;;9.54;100.00;102006.16;6133291;23;20101;-72
2023/10/01 03:39:52;;;;;;;8.07;5.05;;;;;;;9.85;100.00;102064.78;6144916;23;20105;-74
2023/10/01 03:42:18;;;;;;;6.35;5.80;;;;;;;9.94;100.00;102082.84;6139259;23;20017;-72
2023/10/01 03:45:25;;;;;;;6.00;5.18;;;;;;;9.87;100.00;102066.44;6141671;23;20021;-72
2023/10/01 03:48:20;;;;;;;5.70;5.32;;;;;;;9.73;100.00;102043.22;6136520;23;20017;-73
2023/10/01 03:50:45;;;;;;;7.53;5.47;;;;;;;9.85;100.00;102065.63;6158623;23;20028;-72
2023/10/01 03:53:12;;;;;;;5.55;5.15;;;;;;;9.78;100.00;102061.44;6138452;23;20028;-72
2023/10/01 03:55:42;;;;;;;5.38;5.07;;;;;;;9.35;100.00;101986.59;6136237;23;20471;-71
2023/10/01 03:58:18;;;;;;;6.25;5.65;;;;;;;9.94;100.00;102067.13;6128108;23;20021;-72
2023/10/01 04:00:53;;;;;;;5.95;5.43;;;;;;;9.81;100.00;102036.91;6165912;23;20369;-71
2023/10/01 04:03:21;;;;;;;8.18;6.28;;;;;;;9.78;100.00;102037.84;6110866;23;20040;-70
2023/10/01 04:05:48;;;;;;;6.38;5.78;;;;;;;9.66;100.00;102022.44;6167422;23;20454;-72
2023/10/01 04:08:17;;;;;;;6.78;6.28;;;;;;;10.04;100.00;102068.59;6139310;23;20432;-71
2023/10/01 04:10:50;;;;;;;6.20;5.68;;;;;;;10.07;100.00;102073.75;6143331;23;20764;-71
2023/10/01 04:15:49;;;;;;;6.95;6.45;;;;;;;10.10;100.00;102085.91;6163957;23;20463;-73
2023/10/01 04:23:36;;;;;;;7.55;5.75;;;;;;;10.02;100.00;102069.53;6167087;23;20025;-72
2023/10/01 04:26:13;;;;;;;5.68;5.22;;;;;;;9.36;100.00;101969.94;6139596;23;20080;-71
2023/10/01 04:28:45;;;;;;;6.88;6.18;;;;;;;9.96;100.00;102071.44;6143974;23;20415;-71
2023/10/01 04:31:22;;;;;;;6.25;5.78;;;;;;;9.96;100.00;102071.44;6111207;23;20471;-71
2023/10/01 04:33:50;;;;;;;6.32;5.75;;;;;;;9.85;100.00;102056.91;6146071;23;20029;-73
2023/10/01 04:36:19;;;;;;;6.07;5.53;;;;;;;9.69;100.00;102033.72;6161465;23;20544;-72
2023/10/01 04:38:48;;;;;;;6.18;5.57;;;;;;;9.62;100.00;102015.56;6139316;23;20314;-71
2023/10/01 04:41:22;;;;;;;6.22;5.40;;;;;;;9.36;100.00;101983.06;6136882;23;20031;-72
2023/10/01 04:43:52;;;;;;;5.70;5.30;;;;;;;9.74;100.00;102047.56;6162221;23;20373;-71
2023/10/01 04:46:20;;;;;;;6.60;6.07;;;;;;;9.51;100.00;102008.00;6139206;23;20021;-70
2023/10/01 04:48:47;;;;;;;6.25;5.72;;;;;;;9.92;100.00;102074.16;6165224;23;20475;-71
2023/10/01 04:51:14;;;;;;;5.00;4.70;;;;;;;9.92;100.00;102077.69;6133831;23;20078;-72
2023/10/01 04:53:46;;;;;;;6.60;6.07;;;;;;;9.71;100.00;102039.78;6166552;23;20032;-72
2023/10/01 04:56:20;;;;;;;6.45;5.90;;;;;;;9.57;100.00;102020.94;6138127;23;20411;-71
2023/10/01 04:58:51;;;;;;;5.63;5.32;;;;;;;9.77;100.00;102078.09;6162301;23;20019;-71
2023/10/01 05:01:26;;;;;;;5.53;5.20;;;;;;;9.92;100.00;102080.31;6137107;23;20037;-71
2023/10/01 05:03:56;;;;;;;6.03;5.63;;;;;;;9.53;100.00;102016.69;6164256;23;20099;-72
2023/10/01 05:06:23;;;;;;;5.63;5.15;;;;;;;9.54;100.00;102026.25;6140433;23;20701;-72
2023/10/01 05:08:55;;;;;;;5.95;5.50;;;;;;;9.95;100.00;102079.34;6163345;23;20035;-72
2023/10/01 05:11:22;;;;;;;5.82;5.50;;;;;;;9.39;100.00;102001.31;6137678;23;20037;-71
2023/10/01 05:13:51;;;;;;;5.43;5.05;;;;;;;9.78;100.00;102057.06;6163830;23;20455;-71
2023/10/01 05:16:26;;;;;;;5.53;5.07;;;;;;;9.23;100.00;101974.66;6138435;23;20598;-71
2023/10/01 05:19:10;;;;;;;5.38;5.00;;;;;;;9.80;100.00;102064.88;6167298;23;20317;-72
2023/10/01 05:21:41;;;;;;;5.65;5.25;;;;;;;9.90;100.00;102079.47;6141473;23;20419;-73
2023/10/01 05:24:09;;;;;;;5.95;5.53;;;;;;;9.84;100.00;102074.38;6116156;23;20033;-71
2023/10/01 05:26:36;;;;;;;7.55;6.22;;;;;;;9.43;100.00;102005.59;6170734;23;20048;-71
2023/10/01 05:29:05;;;;;;;6.20;5.60;;;;;;;9.71;100.00;102049.41;6168621;23;20020;-71
2023/10/01 05:31:34;;;;;;;5.85;5.50;;;;;;;9.61;100.00;102035.69;6136401;23;20025;-71
2023/10/01 05:34:00;;;;;;;14.13;5.88;;;;;;;9.56;100.00;102027.97;6169236;23;20089;-72
2023/10/01 05:36:29;;;;;;;5.63;5.05;;;;;;;9.83;100.00;102067.44;6154961;23;20369;-71
2023/10/01 05:38:55;;;;;;;6.93;5.65;;;;;;;9.87;100.00;102076.94;6115239;23;20024;-72
2023/10/01 05:41:32;;;;;;;8.32;5.82;;;;;;;9.92;100.00;102082.94;6164255;23;20019;-71
2023/10/01 05:44:01;;;;;;;6.03;5.53;;;;;;;9.63;100.00;102046.13;6141453;23;20025;-71
2023/10/01 05:46:30;;;;;;;5.60;5.15;;;;;;;9.88;100.00;102073.41;6125891;23;20040;-72
2023/10/01 05:49:00;;;;;;;5.97;5.45;;;;;;;9.71;100.00;102046.78;6113297;23;20065;-71
2023/10/01 05:51:36;;;;;;;5.18;4.85;;;;;;;9.78;100.00;102066.69;6140386;23;20021;-70
2023/10/01 05:54:02;;;;;;;5.55;5.13;;;;;;;9.94;100.00;102077.59;6137824;23;20021;-70
2023/10/01 05:56:36;;;;;;;6.57;5.95;;;;;;;10.11;100.00;102100.78;6122155;23;20041;-70
2023/10/01 05:59:06;;;;;;;5.57;5.18;;;;;;;10.02;100.00;102077.41;6137431;23;20052;-71
2023/10/01 06:01:33;;;;;;;7.15;5.85;;;;;;;10.11;100.00;102098.16;6091587;23;20055;-69
2023/10/01 06:04:04;;;;;;;6.78;6.05;;;;;;;10.14;100.00;102113.78;6114179;23;20189;-70
2023/10/01 06:06:36;;;;;;;5.25;4.90;;;;;;;10.26;100.00;102102.94;6119859;23;20061;-69
2023/10/01 06:09:09;;;;;;;6.53;5.22;;;;;;;9.97;100.00;102057.41;6139185;23;20032;-70
2023/10/01 06:11:38;;;;;;;6.10;5.50;;;;;;;10.06;100.00;102056.28;6124120;23;20028;-70
2023/10/01 06:14:06;;;;;;;7.90;5.40;;;;;;;9.92;100.00;102032.22;6135065;23;20041;-70
2023/10/01 06:16:38;;;;;;;5.57;5.18;;;;;;;10.20;100.00;102058.53;6118589;23;20052;-70
2023/10/01 06:19:11;;;;;;;6.38;5.88;;;;;;;10.56;100.00;102109.13;6113053;23;20024;-73
2023/10/01 06:21:39;;;;;;;5.68;5.18;;;;;;;10.63;100.00;102101.06;6115653;23;20581;-71
2023/10/01 06:24:10;;;;;;;8.68;5.88;;;;;;;10.64;100.00;102095.75;6138995;23;20455;-70
2023/10/01 06:26:36;;;;;;;6.20;5.70;;;;;;;10.30;100.00;102036.41;6112963;23;20036;-70
2023/10/01 06:29:07;;;;;;;6.72;6.20;;;;;;;10.31;100.00;102026.78;6140524;23;20045;-70
2023/10/01 06:32:00;;;;;;;5.55;5.15;;;;;;;10.62;100.00;102065.22;6119979;23;20539;-69
2023/10/01 06:34:32;;;;;;;7.03;6.35;;;;;;;10.85;100.00;102083.75;6112355;23;20017;-70
2023/10/01 06:37:01;;;;;;;6.53;6.03;;;;;;;10.85;100.00;102077.66;6113996;23;20074;-69
2023/10/01 06:39:37;;;;;;;10.27;6.63;;;;;;;10.93;100.00;102070.38;6086337;23;20032;-69
2023/10/01 06:42:19;;;;;;;6.05;5.60;;;;;;;10.98;100.00;102057.94;6140303;23;20601;-69
2023/10/01 06:44:49;;;;;;;5.70;5.32;;;;;;;11.04;100.00;102049.88;6124462;23;20383;-70
2023/10/01 06:47:16;;;;;;;9.80;5.80;;;;;;;11.27;100.00;102072.78;6137497;23;20024;-69
2023/10/01 06:49:57;;;;;;;5.85;5.45;;;;;;;10.99;100.00;102012.41;6108694;23;20089;-70
2023/10/01 06:52:28;;;;;;;5.78;5.38;;;;;;;11.52;100.00;102074.56;6139233;23;20028;-70
2023/10/01 06:55:01;;;;;;;6.88;6.38;;;;;;;11.58;100.00;102051.53;6116908;23;20029;-70
2023/10/01 06:57:28;;;;;;;;;;;;;;;11.80;100.00;102063.09;6113849;23;20029;-71
2023/10/01 06:59:56;;;;;;;7.68;6.60;;;;;;;11.57;100.00;101997.25;6118419;23;19917;-70
2023/10/01 07:02:25;;;;;;;11.23;6.18;;;;;;;11.96;100.00;102023.06;6137303;23;20045;-69
2023/10/01 07:04:56;;;;;;;5.82;5.30;;;;;;;12.22;100.00;102033.53;6114550;23;20037;-71
2023/10/01 07:07:40;;;;;;;10.73;5.57;;;;;;;12.32;100.00;102030.50;6138783;23;20016;-70
2023/10/01 07:10:10;;;;;;;6.85;6.25;;;;;;;12.29;100.00;101991.13;6136110;23;20017;-69
2023/10/01 07:12:38;;;;;;;8.13;5.90;;;;;;;12.59;100.00;102006.66;6080748;23;20014;-69
2023/10/01 07:15:06;;;;;;;6.03;5.53;;;;;;;12.75;100.00;101996.38;6138220;23;20053;-70
2023/10/01 07:17:33;;;;;;;6.88;6.20;;;;;;;12.90;100.00;101990.44;6137138;23;20270;-71
2023/10/01 07:20:00;;;;;;;6.10;5.70;;;;;;;13.05;100.00;101985.47;6108823;23;20046;-70
2023/10/01 07:22:30;;;;;;;6.43;5.93;;;;;;;13.14;100.00;101969.28;6083054;23;20025;-71
2023/10/01 07:24:59;;;;;;;6.18;5.68;;;;;;;13.04;100.00;101926.63;6136505;23;20083;-71
2023/10/01 07:27:27;;;;;;;6.72;6.20;;;;;;;13.35;100.00;101960.47;6114260;23;20037;-70
2023/10/01 07:29:55;;;;;;;6.47;5.95;;;;;;;13.12;100.00;101870.97;6079394;23;20319;-70
2023/10/01 07:32:24;;;;;;;5.95;5.45;;;;;;;13.52;100.00;101901.69;6131084;23;20033;-70
2023/10/01 07:34:55;;;;;;;6.03;5.63;;;;;;;13.60;100.00;101890.81;6110163;23;20253;-70
2023/10/01 07:37:26;;;;;;;6.60;5.68;;;;;;;13.80;100.00;101883.75;6109346;23;20028;-71
2023/10/01 07:39:55;;;;;;;7.07;6.38;;;;;;;13.59;100.00;101825.81;6111659;23;20037;-71
2023/10/01 07:42:23;;;;;;;11.30;6.47;;;;;;;13.94;100.00;101857.56;6105575;23;20076;-70
2023/10/01 07:44:49;;;;;;;6.32;5.82;;;;;;;13.77;100.00;101803.81;6089932;23;20226;-70
2023/10/01 07:47:28;;;;;;;6.88;6.38;;;;;;;13.95;100.00;101815.28;6137772;23;20043;-70
2023/10/01 07:50:02;;;;;;;5.85;5.43;;;;;;;14.07;100.00;101812.94;6108653;23;20033;-70
2023/10/01 07:52:32;;;;;;;6.40;5.93;;;;;;;13.97;100.00;101767.66;6114212;23;20032;-70
2023/10/01 07:55:26;;;;;;;8.10;6.80;;;;;;;14.40;100.00;101826.28;6134887;23;20604;-70
2023/10/01 07:57:48;;;;;;;7.18;5.93;;;;;;;14.32;100.00;101781.75;6116497;23;20009;-69
2023/10/01 08:00:32;;;;;;;8.88;6.18;;;;;;;14.36;100.00;101758.69;6082644;23;20258;-71
2023/10/01 08:05:47;;;;;;;8.13;6.32;;;;;;;14.49;100.00;101706.97;6112922;23;20272;-70
2023/10/01 08:08:35;;;;;;;6.50;5.90;;;;;;;14.93;100.00;101753.09;6131196;23;20042;-70
2023/10/01 08:11:02;;;;;;;7.95;5.95;;;;;;;14.92;100.00;101738.19;6089770;23;20389;-71
2023/10/01 08:13:30;;;;;;;7.10;6.45;;;;;;;15.02;100.00;101731.47;6136233;23;20001;-70
2023/10/01 08:15:57;;;;;;;7.10;6.50;;;;;;;15.16;100.00;101738.66;6110826;23;20021;-70
2023/10/01 08:18:35;;;;;;;8.63;6.22;;;;;;;14.97;100.00;101701.78;6135547;23;20337;-71
2023/10/01 08:21:03;;;;;;;6.75;6.15;;;;;;;15.24;100.00;101728.50;6112140;23;20331;-70
2023/10/01 08:23:33;;;;;;;7.65;6.10;;;;;;;15.47;100.00;101729.84;6141147;23;20078;-71
2023/10/01 08:26:39;;;;;;;7.55;6.32;;;;;;;15.44;100.00;101692.16;6137177;23;20047;-70
2023/10/01 08:28:57;;;;;;;6.57;6.05;;;;;;;15.30;100.00;101663.84;6116906;23;20032;-70
2023/10/01 08:34:24;;;;;;;10.23;6.22;;;;;;;15.78;100.00;101695.56;6133770;23;20617;-71
2023/10/01 08:36:56;;;;;;;7.50;6.63;;;;;;;15.92;100.00;101691.16;6106755;23;20083;-71
2023/10/01 08:42:12;;;;;;;11.15;7.45;;;;;;;15.88;100.00;101660.50;6113324;23;20092;-70
2023/10/01 08:44:54;;;;;;;6.47;5.90;;;;;;;16.02;100.00;101658.84;6104964;23;20449;-70
2023/10/01 08:47:31;;;;;;;7.28;6.03;;;;;;;16.42;100.00;101693.50;6167798;23;20089;-70
2023/10/01 08:52:52;;;;;;;7.97;5.97;;;;;;;16.72;100.00;101683.66;6150222;23;20075;-70
2023/10/01 08:55:39;;;;;;;7.40;6.60;;;;;;;16.83;100.00;101666.25;6165309;23;20024;-70
2023/10/01 08:58:25;;;;;;;7.25;6.65;;;;;;;16.91;100.00;101613.59;6151131;23;20430;-71
2023/10/01 09:01:10;;;;;;;9.43;6.65;;;;;;;16.71;100.00;101567.97;6135353;23;20096;-71
2023/10/01 09:03:38;;;;;;;9.20;6.07;;;;;;;16.88;100.00;101588.13;6167735;23;20108;-70
2023/10/01 09:06:08;;;;;;;8.57;5.97;;;;;;;17.35;100.00;101591.28;6138803;23;20507;-71
2023/10/01 09:08:45;;;;;;;7.38;6.63;;;;;;;17.23;98.21;101520.47;6170374;23;20020;-70
2023/10/01 09:11:17;;;;;;;7.45;6.75;;;;;;;17.36;99.76;101558.50;6116636;23;20067;-71
2023/10/01 09:13:58;;;;;;;6.40;5.90;;;;;;;17.53;97.05;101539.59;6169986;23;20028;-70
2023/10/01 09:16:32;;;;;;;11.00;6.30;;;;;;;17.68;98.39;101576.66;6142336;23;20005;-70
2023/10/01 09:21:47;;;;;;;7.63;6.80;;;;;;;17.82;92.11;101470.38;6141191;23;20055;-70
2023/10/01 09:24:34;;;;;;;7.35;6.32;;;;;;;17.90;90.38;101452.13;6169472;23;20307;-71
2023/10/01 09:30:26;;;;;;;7.63;6.78;;;;;;;17.85;91.36;101456.91;6171082;23;20028;-72
2023/10/01 09:32:51;;;;;;;6.85;6.03;;;;;;;18.45;93.90;101572.22;6142494;23;20023;-72
2023/10/01 09:35:31;;;;;;;7.70;6.40;;;;;;;18.60;93.14;101572.06;6172428;23;20036;-72
2023/10/01 09:38:10;;;;;;;9.52;6.53;;;;;;;18.70;91.48;101523.44;6139232;23;20318;-70
2023/10/01 09:40:38;;;;;;;7.05;6.40;;;;;;;19.00;89.65;101523.94;6172467;23;20028;-72
2023/10/01 09:43:05;;;;;;;6.47;5.95;;;;;;;19.15;88.99;101520.16;6141588;23;20009;-71
2023/10/01 09:45:46;;;;;;;7.40;6.43;;;;;;;19.33;88.43;101507.25;6163007;23;20040;-71
2023/10/01 09:48:30;;;;;;;7.70;6.70;;;;;;;19.23;87.97;101484.97;6139869;23;20091;-70
2023/10/01 09:51:13;;;;;;;8.05;6.93;;;;;;;19.63;86.85;101503.22;6146194;23;20032;-71
2023/10/01 09:53:51;;;;;;;8.95;7.18;;;;;;;19.68;85.16;101482.38;6142940;23;20361;-71
2023/10/01 09:56:46;;;;;;;8.57;6.80;;;;;;;19.36;82.39;101387.25;6171170;23;20564;-71
2023/10/01 09:59:15;;;;;;;7.47;6.72;;;;;;;19.84;82.85;101453.59;6111258;23;20074;-72
2023/10/01 10:01:42;;;;;;;7.90;7.05;;;;;;;19.86;80.83;101397.53;6146104;23;20432;-71
2023/10/01 10:04:10;;;;;;;7.68;6.85;;;;;;;19.87;78.14;101330.84;6139391;23;20224;-70
2023/10/01 10:06:39;;;;;;;8.45;7.07;;;;;;;19.93;79.72;101388.09;6166981;23;20028;-70
2023/10/01 10:09:26;;;;;;;7.30;6.45;;;;;;;19.99;81.42;101459.53;6118402;23;20066;-73
2023/10/01 10:11:54;;;;;;;9.30;7.22;;;;;;;19.76;81.76;101424.06;6136724;23;20027;-71
2023/10/01 10:14:25;;;;;;;7.53;6.63;;;;;;;20.08;81.64;101464.09;6169612;23;20052;-72
2023/10/01 10:17:00;;;;;;;7.15;6.65;;;;;;;20.06;81.44;101451.88;6168432;23;20036;-73
2023/10/01 10:19:31;;;;;;;9.55;7.43;;;;;;;20.23;83.29;101515.34;6139398;23;20329;-72
2023/10/01 10:24:34;;;;;;;10.18;7.13;;;;;;;20.40;80.18;101430.50;6146845;23;20029;-70
2023/10/01 10:27:08;;;;;;;9.10;7.47;;;;;;;20.39;77.74;101365.66;6139025;23;20029;-70
2023/10/01 10:29:56;;;;;;;8.63;7.03;;;;;;;20.48;79.71;101441.38;6167360;23;20051;-71
2023/10/01 10:32:30;;;;;;;7.30;6.68;;;;;;;20.61;79.84;101458.09;6139611;23;20029;-69
2023/10/01 10:35:03;;;;;;;8.90;7.40;;;;;;;20.75;82.14;101522.78;6142638;23;20161;-71
2023/10/01 10:37:36;;;;;;;9.57;6.90;;;;;;;20.96;81.49;101521.00;6135765;23;21168;-72
2023/10/01 10:40:26;;;;;;;10.60;7.05;;;;;;;20.57;79.06;101387.28;6142617;23;20023;-70
2023/10/01 10:43:02;;;;;;;8.93;7.20;;;;;;;21.09;79.42;101473.63;6135386;23;20013;-73
2023/10/01 10:45:47;;;;;;;7.97;6.82;;;;;;;21.04;79.79;101454.50;6112590;23;20043;-72
2023/10/01 10:48:21;;;;;;;8.45;6.72;;;;;;;20.97;80.30;101463.13;6137065;23;20025;-72
2023/10/01 10:50:58;;;;;;;8.02;7.28;;;;;;;20.84;79.98;101442.81;6162646;23;20410;-72
2023/10/01 10:53:46;;;;;;;8.20;6.97;;;;;;;20.96;81.31;101475.63;6141426;23;20025;-71
2023/10/01 10:56:14;;;;;;;7.15;6.53;;;;;;;21.68;80.76;101522.94;6168699;23;20093;-71
2023/10/01 10:58:44;;;;;;;8.43;7.50;;;;;;;21.85;79.57;101497.44;6132253;23;20035;-69
2023/10/01 11:01:16;;;;;;;8.93;6.93;;;;;;;22.27;77.54;101489.31;6137377;23;20258;-71
2023/10/01 11:03:47;;;;;;;10.35;7.65;;;;;;;22.23;75.35;101418.34;6164422;23;20103;-72
2023/10/01 11:06:39;;;;;;;7.80;7.07;;;;;;;22.05;74.22;101350.47;6133950;23;20100;-71
2023/10/01 11:09:25;;;;;;;8.75;7.65;;;;;;;22.45;74.82;101419.06;6165669;23;20175;-71
2023/10/01 11:12:19;;;;;;;7.00;6.40;;;;;;;22.56;74.16;101413.59;6138569;23;20038;-71
2023/10/01 11:17:47;;;;;;;12.25;8.07;;;;;;;22.85;70.46;101340.47;6161865;23;20043;-71
2023/10/01 11:20:22;;;;;;;9.63;7.60;;;;;;;22.78;69.23;101256.41;6112017;23;20145;-70
2023/10/01 11:22:54;;;;;;;6.63;6.13;;;;;;;22.54;67.88;101177.50;6137072;23;20035;-70
2023/10/01 11:25:22;;;;;;;8.40;7.47;;;;;;;22.45;67.66;101183.72;6139895;23;20104;-71
2023/10/01 11:28:04;;;;;;;9.23;8.15;;;;;;;22.42;69.57;101270.44;6141317;23;20004;-74
2023/10/01 11:30:42;;;;;;;8.90;7.65;;;;;;;22.79;68.87;101279.50;6166012;23;20044;-70
2023/10/01 11:35:40;;;;;;;12.48;6.72;;;;;;;23.10;69.01;101322.97;6168165;23;20405;-70
2023/10/01 11:38:14;;;;;;;7.55;6.85;;;;;;;23.21;67.83;101304.06;6122666;23;20302;-70
2023/10/01 11:43:38;;;;;;;10.85;7.68;;;;;;;23.15;66.43;101263.59;6139936;23;20163;-70
2023/10/01 11:46:29;;;;;;;9.20;6.63;;;;;;;23.46;65.86;101294.47;6133161;23;20603;-70
2023/10/01 11:49:04;;;;;;;11.60;7.32;;;;;;;23.32;65.01;101214.63;6140564;23;20032;-71
2023/10/01 11:51:54;;;;;;;7.75;7.07;;;;;;;23.52;65.80;101293.03;6137550;23;20062;-71
2023/10/01 11:54:25;;;;;;;12.15;7.68;;;;;;;23.65;65.63;101289.97;6140626;23;20037;-70
2023/10/01 11:57:06;;;;;;;8.13;7.25;;;;;;;23.68;65.11;101271.75;6134325;23;20089;-70
2023/10/01 11:59:36;;;;;;;7.97;7.22;;;;;;;23.60;62.81;101206.53;6167686;23;20040;-70
2023/10/01 12:02:18;;;;;;;9.93;7.25;;;;;;;23.54;62.87;101217.88;6131656;23;20035;-73
2023/10/01 12:04:45;;;;;;;7.75;6.95;;;;;;;23.46;63.33;101259.63;6165130;23;20099;-70
2023/10/01 12:07:18;;;;;;;9.68;7.18;;;;;;;23.32;63.00;101228.00;6160005;23;20483;-70
2023/10/01 12:09:49;;;;;;;8.80;6.72;;;;;;;23.51;64.59;101323.47;6136985;23;20016;-71
2023/10/01 12:12:19;;;;;;;8.10;7.25;;;;;;;23.60;63.92;101303.81;6134562;23;20506;-71
2023/10/01 12:14:55;;;;;;;10.75;7.25;;;;;;;23.74;62.98;101315.03;6164027;23;20024;-71
2023/10/01 12:17:28;;;;;;;14.15;7.60;;;;;;;23.03;61.84;101132.66;6124343;23;20279;-70
2023/10/01 12:20:00;;;;;;;10.30;7.78;;;;;;;23.68;60.75;101204.75;6139634;23;20119;-71
2023/10/01 12:22:28;;;;;;;7.53;6.67;;;;;;;23.73;61.52;101249.84;6109501;23;20033;-70
2023/10/01 12:24:59;;;;;;;12.20;7.30;;;;;;;24.15;62.44;101347.66;6169587;23;20305;-71
2023/10/01 12:27:43;;;;;;;10.82;7.85;;;;;;;24.27;60.65;101298.13;6138033;23;20237;-71
2023/10/01 12:30:27;;;;;;;10.60;7.78;;;;;;;24.35;60.11;101290.13;6142761;23;20354;-70
2023/10/01 12:33:05;;;;;;;9.15;7.22;;;;;;;24.27;59.78;101298.97;6142837;23;20093;-71
2023/10/01 12:35:32;;;;;;;7.90;7.20;;;;;;;24.15;60.63;101323.50;6119638;23;20099;-73